createdAt,value
2023-04-15T00:01:47.038Z,100244.88
2023-04-15T00:04:13.666Z,100260.44
2023-04-15T00:06:40.136Z,100248.91
2023-04-15T00:09:06.562Z,100256.88
2023-04-15T00:11:33.276Z,100251.78
2023-04-15T00:14:00.271Z,100250.03
2023-04-15T00:16:26.762Z,100255.81
2023-04-15T00:18:53.187Z,100237.16
2023-04-15T00:21:19.604Z,100249.19
2023-04-15T00:23:49.729Z,100258.72
2023-04-15T00:26:16.263Z,100257.06
2023-04-15T00:28:42.654Z,100255.31
2023-04-15T00:31:09.786Z,100250.34
2023-04-15T00:33:36.796Z,100253.75
2023-04-15T00:36:04.070Z,100252.81
2023-04-15T00:38:30.510Z,100255.41
2023-04-15T00:40:57.326Z,100242.44
2023-04-15T00:43:23.786Z,100237.47
2023-04-15T00:45:53.650Z,100253.97
2023-04-15T00:48:20.594Z,100257.66
2023-04-15T00:50:47.069Z,100252.06
2023-04-15T00:53:13.529Z,100262.53
2023-04-15T00:55:40.122Z,100258.41
2023-04-15T00:58:06.554Z,100262.00
2023-04-15T01:00:33.008Z,100260.53
2023-04-15T01:02:59.608Z,100257.22
2023-04-15T01:05:27.073Z,100251.47
2023-04-15T01:07:53.539Z,100257.72
2023-04-15T01:10:20.024Z,100256.16
2023-04-15T01:12:46.853Z,100257.38
2023-04-15T01:15:13.589Z,100250.72
2023-04-15T01:17:40.162Z,100254.53
2023-04-15T01:20:10.041Z,100252.97
2023-04-15T01:22:36.543Z,100240.59
2023-04-15T01:25:13.085Z,100249.09
2023-04-15T01:27:42.223Z,100211.06
2023-04-15T01:30:10.498Z,100228.59
2023-04-15T01:32:37.191Z,100248.22
2023-04-15T01:35:03.734Z,100239.72
2023-04-15T01:37:30.931Z,100202.50
2023-04-15T01:39:58.036Z,100246.28
2023-04-15T01:42:24.430Z,100251.59
2023-04-15T01:44:51.071Z,100247.50
2023-04-15T01:47:17.616Z,100244.34
2023-04-15T01:49:44.015Z,100249.00
2023-04-15T01:52:10.441Z,100242.16
2023-04-15T01:54:36.855Z,100244.19
2023-04-15T01:57:03.711Z,100248.72
2023-04-15T01:59:31.910Z,100230.53
2023-04-15T02:01:58.696Z,100243.00
2023-04-15T02:04:25.144Z,100229.25
2023-04-15T02:06:51.594Z,100241.72
2023-04-15T02:09:18.005Z,100154.63
2023-04-15T02:11:46.237Z,100247.91
2023-04-15T02:14:12.681Z,100246.44
2023-04-15T02:16:39.205Z,100249.75
2023-04-15T02:19:05.754Z,100232.22
2023-04-15T02:21:32.171Z,100246.59
2023-04-15T02:23:58.576Z,100247.44
2023-04-15T02:26:25.318Z,100245.97
2023-04-15T02:28:51.765Z,100246.88
2023-04-15T02:31:18.258Z,100250.59
2023-04-15T02:33:45.092Z,100221.66
2023-04-15T02:36:12.389Z,100256.50
2023-04-15T02:38:40.730Z,100273.88
2023-04-15T02:41:07.169Z,100269.91
2023-04-15T02:43:33.607Z,100273.66
2023-04-15T02:46:00.064Z,100272.00
2023-04-15T02:48:26.991Z,100264.50
2023-04-15T02:50:53.418Z,100273.84
2023-04-15T02:53:20.077Z,100268.69
2023-04-15T02:55:46.671Z,100267.94
2023-04-15T02:58:13.178Z,100273.09
2023-04-15T03:00:39.774Z,100282.81
2023-04-15T03:03:06.858Z,100275.97
2023-04-15T03:05:33.486Z,100284.91
2023-04-15T03:08:01.156Z,100288.50
2023-04-15T03:10:27.908Z,100288.50
2023-04-15T03:12:54.291Z,100287.78
2023-04-15T03:15:21.165Z,100286.84
2023-04-15T03:17:49.447Z,100282.59
2023-04-15T03:20:16.946Z,100290.50
2023-04-15T03:22:43.469Z,100289.97
2023-04-15T03:25:09.907Z,100292.16
2023-04-15T03:27:36.351Z,100294.00
2023-04-15T03:30:03.251Z,100296.75
2023-04-15T03:32:29.808Z,100295.00
2023-04-15T03:34:56.248Z,100294.81
2023-04-15T03:37:22.659Z,100301.09
2023-04-15T03:39:49.023Z,100290.91
2023-04-15T03:42:15.629Z,100298.09
2023-04-15T03:44:42.201Z,100268.56
2023-04-15T03:47:08.642Z,100303.78
2023-04-15T03:49:36.024Z,100293.72
2023-04-15T03:52:02.428Z,100304.13
2023-04-15T03:54:28.888Z,100310.41
2023-04-15T03:56:55.975Z,100303.66
2023-04-15T03:59:22.420Z,100310.53
2023-04-15T04:01:48.907Z,100300.22
2023-04-15T04:04:15.619Z,100302.88
2023-04-15T04:06:42.101Z,100301.38
2023-04-15T04:09:08.540Z,100307.66
2023-04-15T04:11:35.224Z,100321.31
2023-04-15T04:14:01.611Z,100317.06
2023-04-15T04:16:28.109Z,100322.47
2023-04-15T04:18:54.685Z,100327.91
2023-04-15T04:21:21.624Z,100335.72
2023-04-15T04:23:48.109Z,100334.19
2023-04-15T04:26:14.517Z,100332.53
2023-04-15T04:28:40.972Z,100332.66
2023-04-15T04:31:07.786Z,100332.72
2023-04-15T04:33:34.315Z,100347.47
2023-04-15T04:36:00.715Z,100341.69
2023-04-15T04:38:27.189Z,100344.59
2023-04-15T04:40:54.013Z,100337.53
2023-04-15T04:43:20.472Z,100343.13
2023-04-15T04:45:47.295Z,100352.53
2023-04-15T04:48:13.774Z,100348.22
2023-04-15T04:50:40.409Z,100349.19
2023-04-15T04:53:06.936Z,100355.47
2023-04-15T04:55:33.417Z,100351.97
2023-04-15T04:57:59.774Z,100345.94
2023-04-15T05:00:26.169Z,100364.63
2023-04-15T05:02:52.774Z,100350.88
2023-04-15T05:05:19.387Z,100356.56
2023-04-15T05:07:46.078Z,100360.69
2023-04-15T05:10:12.526Z,100357.97
2023-04-15T05:12:39.054Z,100371.38
2023-04-15T05:15:06.694Z,100369.41
2023-04-15T05:17:35.248Z,100380.22
2023-04-15T05:20:02.780Z,100385.06
2023-04-15T05:22:29.298Z,100385.38
2023-04-15T05:24:56.019Z,100385.72
2023-04-15T05:27:24.040Z,100397.88
2023-04-15T05:29:50.518Z,100374.53
2023-04-15T05:32:17.408Z,100394.41
2023-04-15T05:34:43.874Z,100408.78
2023-04-15T05:37:10.504Z,100408.09
2023-04-15T05:39:36.956Z,100408.19
2023-04-15T05:42:03.519Z,100411.81
2023-04-15T05:44:30.076Z,100406.69
2023-04-15T05:46:56.887Z,100402.22
2023-04-15T05:49:23.520Z,100374.78
2023-04-15T05:51:49.938Z,100413.06
2023-04-15T05:54:18.696Z,100412.50
2023-04-15T05:56:46.532Z,100415.19
2023-04-15T05:59:13.115Z,100422.25
2023-04-15T06:01:39.994Z,100423.69
2023-04-15T06:04:06.807Z,100423.34
2023-04-15T06:06:33.388Z,100430.88
2023-04-15T06:08:59.965Z,100425.88
2023-04-15T06:11:27.250Z,100423.66
2023-04-15T06:13:53.624Z,100426.19
2023-04-15T06:16:20.065Z,100424.63
2023-04-15T06:18:46.485Z,100443.59
2023-04-15T06:21:13.263Z,100441.16
2023-04-15T06:23:41.178Z,100433.97
2023-04-15T06:26:07.873Z,100435.75
2023-04-15T06:28:34.540Z,100446.94
2023-04-15T06:31:01.914Z,100441.50
2023-04-15T06:33:28.651Z,100458.72
2023-04-15T06:35:55.069Z,100464.69
2023-04-15T06:38:21.587Z,100463.63
2023-04-15T06:40:48.071Z,100466.84
2023-04-15T06:43:15.245Z,100470.03
2023-04-15T06:45:41.704Z,100470.06
2023-04-15T06:48:08.135Z,100479.53
2023-04-15T06:50:35.652Z,100478.81
2023-04-15T06:53:02.169Z,100488.38
2023-04-15T06:55:28.642Z,100490.59
2023-04-15T06:57:55.357Z,100490.53
2023-04-15T07:00:22.300Z,100495.88
2023-04-15T07:02:48.797Z,100490.59
2023-04-15T07:05:15.588Z,100494.00
2023-04-15T07:07:42.240Z,100510.47
2023-04-15T07:10:09.188Z,100511.47
2023-04-15T07:12:35.890Z,100510.97
2023-04-15T07:15:02.282Z,100512.25
2023-04-15T07:17:28.760Z,100520.44
2023-04-15T07:19:55.211Z,100529.34
2023-04-15T07:22:21.622Z,100525.31
2023-04-15T07:24:48.033Z,100528.78
2023-04-15T07:27:14.481Z,100534.72
2023-04-15T07:29:41.370Z,100542.00
2023-04-15T07:32:07.818Z,100534.13
2023-04-15T07:34:34.240Z,100535.50
2023-04-15T07:37:00.715Z,100539.78
2023-04-15T07:39:27.307Z,100545.16
2023-04-15T07:41:53.723Z,100540.06
2023-04-15T07:44:20.436Z,100550.56
2023-04-15T07:46:48.004Z,100530.56
2023-04-15T07:49:14.520Z,100550.31
2023-04-15T07:51:41.002Z,100560.38
2023-04-15T07:54:08.900Z,100552.66
2023-04-15T07:56:35.332Z,100535.28
2023-04-15T07:59:06.054Z,100549.06
2023-04-15T08:01:35.762Z,100576.22
2023-04-15T08:04:02.368Z,100572.66
2023-04-15T08:06:29.189Z,100578.31
2023-04-15T08:08:55.657Z,100583.94
2023-04-15T08:11:23.093Z,100578.84
2023-04-15T08:13:49.517Z,100581.50
2023-04-15T08:16:27.845Z,100575.25
2023-04-15T08:18:56.769Z,100582.13
2023-04-15T08:21:23.823Z,100585.97
2023-04-15T08:23:52.032Z,100586.78
2023-04-15T08:26:19.373Z,100580.34
2023-04-15T08:28:46.309Z,100590.34
2023-04-15T08:31:14.747Z,100591.50
2023-04-15T08:33:41.153Z,100600.47
2023-04-15T08:36:07.792Z,100592.63
2023-04-15T08:38:34.660Z,100594.47
2023-04-15T08:41:04.868Z,100613.44
2023-04-15T08:43:47.823Z,100549.53
2023-04-15T08:46:15.589Z,100621.69
2023-04-15T08:48:45.237Z,100619.09
2023-04-15T08:51:15.979Z,100618.94
2023-04-15T08:53:47.352Z,100617.03
2023-04-15T08:56:16.598Z,100626.13
2023-04-15T08:58:47.077Z,100622.28
2023-04-15T09:01:13.708Z,100623.28
2023-04-15T09:03:41.701Z,100630.03
2023-04-15T09:06:08.701Z,100629.72
2023-04-15T09:08:35.789Z,100627.91
2023-04-15T09:11:03.261Z,100634.13
2023-04-15T09:13:30.454Z,100629.78
2023-04-15T09:15:58.447Z,100638.47
2023-04-15T09:18:33.015Z,100632.34
2023-04-15T09:21:14.138Z,100644.38
2023-04-15T09:23:53.664Z,100638.38
2023-04-15T09:26:20.415Z,100636.69
2023-04-15T09:28:46.796Z,100640.28
2023-04-15T09:31:13.263Z,100642.31
2023-04-15T09:33:56.805Z,100644.94
2023-04-15T09:36:25.019Z,100642.25
2023-04-15T09:38:57.216Z,100657.84
2023-04-15T09:41:24.924Z,100650.28
2023-04-15T09:43:51.662Z,100657.75
2023-04-15T09:46:18.439Z,100648.84
2023-04-15T09:48:45.345Z,100660.72
2023-04-15T09:51:11.882Z,100660.06
2023-04-15T09:53:38.413Z,100665.22
2023-04-15T09:56:07.770Z,100669.66
2023-04-15T09:58:36.062Z,100673.88
2023-04-15T10:01:11.570Z,100683.94
2023-04-15T10:03:39.487Z,100686.50
2023-04-15T10:06:06.136Z,100680.94
2023-04-15T10:08:34.927Z,100681.38
2023-04-15T10:11:05.502Z,100672.06
2023-04-15T10:13:37.339Z,100684.03
2023-04-15T10:16:15.782Z,100684.56
2023-04-15T10:18:47.980Z,100688.00
2023-04-15T10:21:18.354Z,100679.00
2023-04-15T10:23:47.702Z,100695.09
2023-04-15T10:26:20.326Z,100698.69
2023-04-15T10:28:49.625Z,100697.50
2023-04-15T10:31:18.509Z,100695.38
2023-04-15T10:33:47.459Z,100688.47
2023-04-15T10:36:14.412Z,100663.81
2023-04-15T10:38:45.826Z,100697.84
2023-04-15T10:41:13.267Z,100707.47
2023-04-15T10:43:40.152Z,100707.53
2023-04-15T10:46:06.987Z,100715.53
2023-04-15T10:48:33.590Z,100703.56
2023-04-15T10:51:05.038Z,100713.81
2023-04-15T10:53:32.009Z,100720.50
2023-04-15T10:55:58.672Z,100719.97
2023-04-15T10:58:25.799Z,100720.91
2023-04-15T11:00:53.789Z,100722.13
2023-04-15T11:03:40.569Z,100723.34
2023-04-15T11:06:07.499Z,100725.00
2023-04-15T11:08:56.948Z,100725.47
2023-04-15T11:11:23.447Z,100690.91
2023-04-15T11:13:51.739Z,100741.84
2023-04-15T11:16:18.497Z,100733.41
2023-04-15T11:18:55.742Z,100727.97
2023-04-15T11:21:25.352Z,100727.72
2023-04-15T11:23:51.853Z,100740.50
2023-04-15T11:26:18.316Z,100740.03
2023-04-15T11:28:46.125Z,100741.03
2023-04-15T11:31:17.707Z,100726.81
2023-04-15T11:33:56.537Z,100760.50
2023-04-15T11:36:29.715Z,100758.31
2023-04-15T11:38:58.899Z,100760.84
2023-04-15T11:41:25.368Z,100755.47
2023-04-15T11:43:52.545Z,100765.00
2023-04-15T11:46:19.209Z,100773.56
2023-04-15T11:48:46.950Z,100769.81
2023-04-15T11:51:14.551Z,100764.03
2023-04-15T11:53:51.069Z,100769.66
2023-04-15T11:56:19.598Z,100767.72
2023-04-15T11:58:46.548Z,100775.72
2023-04-15T12:01:13.660Z,100780.16
2023-04-15T12:03:43.430Z,100780.72
2023-04-15T12:06:23.432Z,100784.63
2023-04-15T12:08:55.846Z,100786.69
2023-04-15T12:11:30.949Z,100782.28
2023-04-15T12:14:12.781Z,100790.53
2023-04-15T12:16:48.567Z,100793.03
2023-04-15T12:19:25.991Z,100785.44
2023-04-15T12:21:58.792Z,100793.16
2023-04-15T12:24:26.563Z,100795.94
2023-04-15T12:26:57.976Z,100802.59
2023-04-15T12:29:28.960Z,100806.31
2023-04-15T12:31:57.626Z,100789.81
2023-04-15T12:34:28.466Z,100812.34
2023-04-15T12:36:55.530Z,100822.44
2023-04-15T12:39:24.392Z,100829.31
2023-04-15T12:41:51.531Z,100835.50
2023-04-15T12:44:18.192Z,100835.75
2023-04-15T12:46:46.808Z,100845.56
2023-04-15T12:49:14.741Z,100836.81
2023-04-15T12:51:41.193Z,100860.94
2023-04-15T12:54:07.920Z,100863.16
2023-04-15T12:56:34.350Z,100861.00
2023-04-15T12:59:00.772Z,100863.44
2023-04-15T13:01:27.304Z,100865.75
2023-04-15T13:03:53.821Z,100872.91
2023-04-15T13:06:20.279Z,100866.53
2023-04-15T13:08:57.219Z,100868.06
2023-04-15T13:11:25.365Z,100878.84
2023-04-15T13:13:52.920Z,100877.38
2023-04-15T13:16:19.584Z,100863.41
2023-04-15T13:18:46.162Z,100889.81
2023-04-15T13:21:13.274Z,100898.84
2023-04-15T13:23:41.550Z,100857.88
2023-04-15T13:26:08.350Z,100897.75
2023-04-15T13:28:35.271Z,100900.59
2023-04-15T13:31:01.823Z,100904.41
2023-04-15T13:33:28.276Z,100907.94
2023-04-15T13:35:54.737Z,100888.75
2023-04-15T13:38:21.378Z,100920.59
2023-04-15T13:40:47.833Z,100925.59
2023-04-15T13:43:14.367Z,100927.44
2023-04-15T13:45:41.136Z,100931.13
2023-04-15T13:48:07.589Z,100935.69
2023-04-15T13:50:33.996Z,100936.66
2023-04-15T13:53:00.553Z,100916.69
2023-04-15T13:55:27.964Z,100913.97
2023-04-15T13:57:56.251Z,100938.69
2023-04-15T14:00:22.678Z,100946.78
2023-04-15T14:02:49.170Z,100941.53
2023-04-15T14:05:15.707Z,100935.59
2023-04-15T14:07:42.217Z,100944.72
2023-04-15T14:10:09.030Z,100920.25
2023-04-15T14:12:35.654Z,100920.25
2023-04-15T14:15:02.331Z,100946.84
2023-04-15T14:17:28.881Z,100963.84
2023-04-15T14:19:55.338Z,100954.91
2023-04-15T14:22:21.830Z,100960.28
2023-04-15T14:24:49.154Z,100956.28
2023-04-15T14:27:16.470Z,100961.66
2023-04-15T14:29:42.919Z,100968.38
2023-04-15T14:32:12.057Z,100965.28
2023-04-15T14:34:39.713Z,100964.09
2023-04-15T14:37:06.484Z,100978.16
2023-04-15T14:39:33.066Z,100974.72
2023-04-15T14:41:59.549Z,100976.00
2023-04-15T14:44:26.061Z,100991.25
2023-04-15T14:46:52.662Z,100983.28
2023-04-15T14:49:19.712Z,100984.22
2023-04-15T14:51:46.407Z,100993.25
2023-04-15T14:54:12.832Z,101002.19
2023-04-15T14:56:39.271Z,100997.19
2023-04-15T14:59:06.071Z,100984.88
2023-04-15T15:01:34.064Z,101006.50
2023-04-15T15:04:00.946Z,101011.84
2023-04-15T15:06:27.812Z,101005.22
2023-04-15T15:08:54.241Z,101022.91
2023-04-15T15:11:21.011Z,101016.28
2023-04-15T15:13:47.471Z,101017.44
2023-04-15T15:16:14.647Z,100999.03
2023-04-15T15:18:41.346Z,101024.09
2023-04-15T15:21:07.801Z,101022.78
2023-04-15T15:23:34.332Z,101021.34
2023-04-15T15:26:00.842Z,101029.81
2023-04-15T15:28:27.285Z,101030.50
2023-04-15T15:30:53.788Z,101029.47
2023-04-15T15:33:20.846Z,101020.16
2023-04-15T15:35:47.319Z,101033.38
2023-04-15T15:38:13.761Z,101035.53
2023-04-15T15:40:40.357Z,101040.38
2023-04-15T15:43:06.767Z,101036.44
2023-04-15T15:45:33.615Z,101043.56
2023-04-15T15:48:01.539Z,101051.91
2023-04-15T15:50:28.060Z,101051.31
2023-04-15T15:52:55.133Z,101039.91
2023-04-15T15:55:21.650Z,101051.34
2023-04-15T15:57:48.039Z,101049.78
2023-04-15T16:00:14.808Z,101057.53
2023-04-15T16:05:11.800Z,101067.75
2023-04-15T16:07:38.221Z,101058.34
2023-04-15T16:10:05.102Z,101068.81
2023-04-15T16:12:33.782Z,101080.97
2023-04-15T16:15:01.339Z,101072.88
2023-04-15T16:17:27.918Z,101075.25
2023-04-15T16:19:59.121Z,101093.81
2023-04-15T16:22:27.274Z,101059.66
2023-04-15T16:24:53.847Z,101091.31
2023-04-15T16:27:20.289Z,101099.50
2023-04-15T16:29:46.799Z,101094.38
2023-04-15T16:32:13.400Z,101110.19
2023-04-15T16:34:41.264Z,101106.88
2023-04-15T16:37:07.782Z,101107.22
2023-04-15T16:39:34.251Z,101110.28
2023-04-15T16:42:02.279Z,101071.59
2023-04-15T16:44:28.986Z,101108.97
2023-04-15T16:46:55.780Z,101120.63
2023-04-15T16:49:22.315Z,101119.78
2023-04-15T16:51:48.713Z,101127.84
2023-04-15T16:54:15.276Z,101128.19
2023-04-15T16:56:41.787Z,101135.81
2023-04-15T16:59:08.284Z,101137.59
2023-04-15T17:01:34.868Z,101139.09
2023-04-15T17:04:01.506Z,101143.34
2023-04-15T17:06:28.216Z,101142.44
2023-04-15T17:08:54.598Z,101142.56
2023-04-15T17:11:21.031Z,101145.19
2023-04-15T17:13:47.573Z,101150.63
2023-04-15T17:16:14.088Z,101147.63
2023-04-15T17:18:40.712Z,101157.97
2023-04-15T17:21:07.158Z,101156.13
2023-04-15T17:23:33.655Z,101159.69
2023-04-15T17:26:00.139Z,101165.84
2023-04-15T17:28:26.721Z,101162.78
2023-04-15T17:30:53.204Z,101163.00
2023-04-15T17:33:54.049Z,101166.19
2023-04-15T17:36:06.368Z,101130.00
2023-04-15T17:38:32.793Z,101177.06
2023-04-15T17:40:59.277Z,101176.75
2023-04-15T17:43:25.761Z,101184.50
2023-04-15T17:45:52.243Z,101185.31
2023-04-15T17:48:18.702Z,101195.44
2023-04-15T17:50:45.094Z,101188.47
2023-04-15T17:53:11.732Z,101204.03
2023-04-15T17:55:38.362Z,101198.91
2023-04-15T17:58:04.828Z,101208.31
2023-04-15T18:00:31.358Z,101202.47
2023-04-15T18:02:57.959Z,101200.97
2023-04-15T18:05:24.548Z,101223.44
2023-04-15T18:07:53.992Z,101217.72
2023-04-15T18:10:20.741Z,101214.03
2023-04-15T18:12:48.083Z,101215.41
2023-04-15T18:15:14.589Z,101224.91
2023-04-15T18:17:41.026Z,101226.75
2023-04-15T18:20:07.959Z,101207.25
2023-04-15T18:22:34.452Z,101224.25
2023-04-15T18:25:04.190Z,101224.56
2023-04-15T18:27:34.572Z,101235.09
2023-04-15T18:30:01.167Z,101221.19
2023-04-15T18:32:31.673Z,101249.88
2023-04-15T18:34:58.376Z,101252.81
2023-04-15T18:37:25.169Z,101261.69
2023-04-15T18:39:51.703Z,101263.44
2023-04-15T18:42:18.245Z,101277.63
2023-04-15T18:44:44.688Z,101238.22
2023-04-15T18:47:11.181Z,101278.75
2023-04-15T18:49:37.655Z,101288.03
2023-04-15T18:52:04.185Z,101296.66
2023-04-15T18:54:30.662Z,101300.59
2023-04-15T18:56:57.277Z,101311.03
2023-04-15T18:59:29.280Z,101308.63
2023-04-15T19:01:58.185Z,101308.25
2023-04-15T19:04:24.721Z,101290.03
2023-04-15T19:06:51.470Z,101326.72
2023-04-15T19:09:18.023Z,101326.59
2023-04-15T19:11:44.476Z,101332.66
2023-04-15T19:14:11.250Z,101332.94
2023-04-15T19:16:37.838Z,101333.59
2023-04-15T19:19:06.416Z,101340.13
2023-04-15T19:21:33.229Z,101345.63
2023-04-15T19:24:00.771Z,101347.38
2023-04-15T19:26:27.273Z,101350.38
2023-04-15T19:28:56.458Z,101355.59
2023-04-15T19:31:23.033Z,101355.88
2023-04-15T19:33:49.600Z,101340.50
2023-04-15T19:36:18.043Z,101352.97
2023-04-15T19:38:44.521Z,101368.06
2023-04-15T19:41:11.054Z,101367.50
2023-04-15T19:43:37.470Z,101364.22
2023-04-15T19:46:03.952Z,101364.75
2023-04-15T19:48:30.561Z,101307.31
2023-04-15T19:50:57.089Z,101373.78
2023-04-15T19:53:25.502Z,101375.44
2023-04-15T19:55:52.022Z,101368.38
2023-04-15T19:58:18.495Z,101371.72
2023-04-15T20:00:44.952Z,101369.13
2023-04-15T20:03:11.590Z,101379.38
2023-04-15T20:05:38.173Z,101374.16
2023-04-15T20:08:04.774Z,101378.44
2023-04-15T20:10:31.956Z,101371.72
2023-04-15T20:12:58.492Z,101363.81
2023-04-15T20:15:25.012Z,101388.25
2023-04-15T20:17:51.583Z,101398.69
2023-04-15T20:20:18.344Z,101390.94
2023-04-15T20:22:44.882Z,101389.19
2023-04-15T20:25:11.430Z,101386.38
2023-04-15T20:27:37.959Z,101393.47
2023-04-15T20:30:05.098Z,101363.34
2023-04-15T20:32:35.858Z,101398.34
2023-04-15T20:35:04.507Z,101395.94
2023-04-15T20:37:33.318Z,101398.53
2023-04-15T20:40:00.997Z,101393.47
2023-04-15T20:42:27.553Z,101402.06
2023-04-15T20:44:54.078Z,101409.69
2023-04-15T20:47:20.745Z,101393.69
2023-04-15T20:49:47.456Z,101401.50
2023-04-15T20:52:13.964Z,101407.81
2023-04-15T20:54:40.748Z,101412.19
2023-04-15T20:57:07.182Z,101410.78
2023-04-15T20:59:34.816Z,101359.25
2023-04-15T21:02:01.771Z,101416.25
2023-04-15T21:04:28.334Z,101414.66
2023-04-15T21:06:54.793Z,101419.84
2023-04-15T21:09:21.196Z,101419.38
2023-04-15T21:14:18.336Z,101426.25
2023-04-15T21:16:45.073Z,101399.50
2023-04-15T21:19:11.522Z,101416.84
2023-04-15T21:21:37.966Z,101426.25
2023-04-15T21:24:06.167Z,101423.19
2023-04-15T21:26:32.616Z,101434.69
2023-04-15T21:28:59.047Z,101433.84
2023-04-15T21:31:25.572Z,101432.06
2023-04-15T21:33:51.998Z,101432.06
2023-04-15T21:36:18.398Z,101438.03
2023-04-15T21:38:44.793Z,101444.00
2023-04-15T21:41:11.298Z,101384.53
2023-04-15T21:43:37.843Z,101444.00
2023-04-15T21:46:23.443Z,101441.66
2023-04-15T21:48:51.528Z,101456.34
2023-04-15T21:51:17.933Z,101455.69
2023-04-15T21:53:44.463Z,101452.97
2023-04-15T21:56:11.116Z,101471.19
2023-04-15T21:58:37.680Z,101465.44
2023-04-15T22:01:04.872Z,101464.44
2023-04-15T22:03:36.375Z,101466.09
2023-04-15T22:06:03.717Z,101466.44
2023-04-15T22:08:36.060Z,101452.19
2023-04-15T22:11:08.392Z,101447.13
2023-04-15T22:13:35.301Z,101474.25
2023-04-15T22:16:02.152Z,101469.38
2023-04-15T22:18:28.552Z,101484.47
2023-04-15T22:20:56.170Z,101478.44
2023-04-15T22:23:22.586Z,101484.66
2023-04-15T22:25:48.976Z,101477.59
2023-04-15T22:28:15.394Z,101476.59
2023-04-15T22:30:42.520Z,101487.00
2023-04-15T22:33:09.800Z,101426.34
2023-04-15T22:35:37.399Z,101491.03
2023-04-15T22:38:04.753Z,101459.88
2023-04-15T22:40:31.286Z,101481.59
2023-04-15T22:42:57.816Z,101488.84
2023-04-15T22:45:24.312Z,101488.59
2023-04-15T22:47:50.822Z,101486.19
2023-04-15T22:50:17.602Z,101480.97
2023-04-15T22:52:46.192Z,101498.09
2023-04-15T22:55:13.142Z,101492.69
2023-04-15T22:57:39.856Z,101494.38
2023-04-15T23:00:07.395Z,101491.53
2023-04-15T23:02:34.654Z,101499.09
2023-04-15T23:05:02.019Z,101509.44
2023-04-15T23:07:31.594Z,101504.88
2023-04-15T23:10:00.221Z,101509.16
2023-04-15T23:12:27.057Z,101510.00
2023-04-15T23:14:53.433Z,101504.72
2023-04-15T23:17:19.894Z,101508.97
2023-04-15T23:19:46.339Z,101520.06
2023-04-15T23:22:12.769Z,101498.94
2023-04-15T23:24:39.185Z,101519.25
2023-04-15T23:27:05.897Z,101518.31
2023-04-15T23:29:32.296Z,101517.47
2023-04-15T23:31:58.757Z,101489.69
2023-04-15T23:34:25.507Z,101520.81
2023-04-15T23:36:51.944Z,101520.16
2023-04-15T23:39:18.404Z,101526.03
2023-04-15T23:41:44.904Z,101514.88
2023-04-15T23:44:11.448Z,101531.16
2023-04-15T23:46:37.867Z,101528.63
2023-04-15T23:49:04.357Z,101528.63
2023-04-15T23:51:30.763Z,101525.13
2023-04-15T23:53:57.166Z,101526.03
2023-04-15T23:56:23.565Z,101530.47
2023-04-15T23:58:50.058Z,101531.41
